createdAt,value
2018-10-16T00:01:53.275Z,97.39
2018-10-16T00:04:22.309Z,98.75
2018-10-16T00:06:52.339Z,97.98
2018-10-16T00:09:22.356Z,98.62
2018-10-16T00:11:51.413Z,100.00
2018-10-16T00:14:22.389Z,100.00
2018-10-16T00:22:03.944Z,100.00
2018-10-16T00:24:32.973Z,100.00
2018-10-16T00:32:13.480Z,100.00
2018-10-16T00:42:29.773Z,97.63
2018-10-16T00:44:58.786Z,100.00
2018-10-16T00:47:27.837Z,100.00
2018-10-16T00:49:57.901Z,100.00
2018-10-16T00:52:26.969Z,100.00
2018-10-16T00:54:56.247Z,100.00
2018-10-16T00:57:26.225Z,100.00
2018-10-16T00:59:55.273Z,100.00
2018-10-16T01:02:24.337Z,100.00
2018-10-16T01:04:53.390Z,100.00
2018-10-16T01:07:22.453Z,100.00
2018-10-16T01:09:51.517Z,100.00
2018-10-16T01:12:21.528Z,100.00
2018-10-16T01:14:50.591Z,100.00
2018-10-16T01:17:19.642Z,100.00
2018-10-16T01:19:49.844Z,98.30
2018-10-16T01:24:54.651Z,95.77
2018-10-16T01:27:23.691Z,97.85
2018-10-16T01:32:28.625Z,97.33
2018-10-16T01:34:57.678Z,98.13
2018-10-16T01:37:26.720Z,99.20
2018-10-16T01:39:55.770Z,100.00
2018-10-16T01:42:25.777Z,100.00
2018-10-16T01:44:54.843Z,100.00
2018-10-16T01:47:23.923Z,100.00
2018-10-16T01:49:52.986Z,100.00
2018-10-16T01:52:22.041Z,100.00
2018-10-16T01:54:51.085Z,100.00
2018-10-16T01:57:20.135Z,100.00
2018-10-16T01:59:50.281Z,100.00
2018-10-16T02:02:19.309Z,98.97
2018-10-16T02:04:48.361Z,98.61
2018-10-16T02:07:18.430Z,97.05
2018-10-16T02:09:47.452Z,97.53
2018-10-16T02:14:08.677Z,96.48
2018-10-16T02:16:37.728Z,98.90
2018-10-16T02:19:06.763Z,98.94
2018-10-16T02:21:35.810Z,100.00
2018-10-16T02:26:40.550Z,100.00
2018-10-16T02:29:09.617Z,100.00
2018-10-16T02:31:38.664Z,100.00
2018-10-16T02:34:07.801Z,100.00
2018-10-16T02:36:36.843Z,100.00
2018-10-16T02:39:05.910Z,100.00
2018-10-16T02:41:34.977Z,100.00
2018-10-16T02:44:04.025Z,100.00
2018-10-16T02:46:33.077Z,98.37
2018-10-16T02:49:03.112Z,98.94
2018-10-16T02:54:08.972Z,100.00
2018-10-16T02:56:38.021Z,100.00
2018-10-16T02:59:07.090Z,100.00
2018-10-16T03:04:12.873Z,100.00
2018-10-16T03:06:41.989Z,100.00
2018-10-16T03:09:11.020Z,100.00
2018-10-16T03:14:15.760Z,100.00
2018-10-16T03:16:44.830Z,100.00
2018-10-16T03:19:13.891Z,100.00
2018-10-16T03:21:42.917Z,100.00
2018-10-16T03:24:11.957Z,100.00
2018-10-16T03:29:16.707Z,100.00
2018-10-16T03:34:21.465Z,100.00
2018-10-16T03:36:50.517Z,99.97
2018-10-16T03:39:19.554Z,99.85
2018-10-16T03:41:48.605Z,100.00
2018-10-16T03:44:17.648Z,100.00
2018-10-16T03:46:46.699Z,100.00
2018-10-16T03:49:15.758Z,100.00
2018-10-16T03:54:20.537Z,100.00
2018-10-16T03:59:25.341Z,100.00
2018-10-16T04:01:56.371Z,100.00
2018-10-16T04:04:26.369Z,100.00
2018-10-16T04:06:55.431Z,100.00
2018-10-16T04:09:24.497Z,100.00
2018-10-16T04:11:54.479Z,100.00
2018-10-16T04:14:23.525Z,100.00
2018-10-16T04:19:28.283Z,100.00
2018-10-16T04:24:33.022Z,100.00
2018-10-16T04:27:02.070Z,100.00
2018-10-16T04:29:31.120Z,100.00
2018-10-16T04:34:36.846Z,99.84
2018-10-16T04:37:05.926Z,99.43
2018-10-16T04:39:34.965Z,99.48
2018-10-16T04:42:04.024Z,100.00
2018-10-16T04:44:33.065Z,99.70
2018-10-16T04:47:02.114Z,100.00
2018-10-16T04:49:31.163Z,100.00
2018-10-16T04:52:00.226Z,100.00
2018-10-16T04:54:29.265Z,100.00
2018-10-16T04:56:58.312Z,100.00
2018-10-16T04:59:27.386Z,99.90
2018-10-16T05:04:32.133Z,100.00
2018-10-16T05:09:36.881Z,99.65
2018-10-16T05:12:05.940Z,98.88
2018-10-16T05:14:34.988Z,100.00
2018-10-16T05:17:04.030Z,100.00
2018-10-16T05:19:33.097Z,100.00
2018-10-16T05:22:02.155Z,100.00
2018-10-16T05:24:31.232Z,100.00
2018-10-16T05:29:36.988Z,99.12
2018-10-16T05:32:06.024Z,98.81
2018-10-16T05:34:35.067Z,99.07
2018-10-16T05:37:04.109Z,98.19
2018-10-16T05:39:33.184Z,98.12
2018-10-16T05:44:39.985Z,97.01
2018-10-16T05:47:09.074Z,97.19
2018-10-16T05:49:38.123Z,97.34
2018-10-16T05:52:07.276Z,96.45
2018-10-16T05:54:39.860Z,96.08
2018-10-16T05:59:44.672Z,97.98
2018-10-16T06:04:50.385Z,98.47
2018-10-16T06:07:19.487Z,98.01
2018-10-16T06:09:48.543Z,99.47
2018-10-16T06:14:53.336Z,98.48
2018-10-16T06:17:22.373Z,97.17
2018-10-16T06:19:51.440Z,97.32
2018-10-16T06:22:20.478Z,98.07
2018-10-16T06:27:27.236Z,96.10
2018-10-16T06:29:56.291Z,96.15
2018-10-16T06:32:25.335Z,95.36
2018-10-16T06:34:54.372Z,95.07
2018-10-16T06:39:59.107Z,93.45
2018-10-16T06:42:28.158Z,93.12
2018-10-16T06:47:33.032Z,91.73
2018-10-16T06:50:02.031Z,91.36
2018-10-16T06:52:31.152Z,90.71
2018-10-16T06:55:00.206Z,90.07
2018-10-16T07:00:15.276Z,88.99
2018-10-16T07:02:44.310Z,88.22
2018-10-16T07:05:13.371Z,87.26
2018-10-16T07:07:43.203Z,87.35
2018-10-16T07:12:48.068Z,85.47
2018-10-16T07:17:53.890Z,84.06
2018-10-16T07:20:22.957Z,83.82
2018-10-16T07:22:52.013Z,83.61
2018-10-16T07:25:21.062Z,83.35
2018-10-16T07:27:50.125Z,82.93
2018-10-16T07:30:19.455Z,82.13
2018-10-16T07:32:49.474Z,81.67
2018-10-16T07:35:18.525Z,81.96
2018-10-16T07:37:47.609Z,81.55
2018-10-16T07:42:52.382Z,80.27
2018-10-16T07:45:21.420Z,78.73
2018-10-16T07:47:50.483Z,76.14
2018-10-16T07:50:19.700Z,76.04
2018-10-16T07:52:48.721Z,76.80
2018-10-16T07:55:18.014Z,76.78
2018-10-16T07:57:48.968Z,74.25
2018-10-16T08:00:18.013Z,72.60
2018-10-16T08:05:23.805Z,70.69
2018-10-16T08:07:52.858Z,69.51
2018-10-16T08:13:00.578Z,70.10
2018-10-16T08:15:37.649Z,70.74
2018-10-16T08:20:42.545Z,68.99
2018-10-16T08:23:11.601Z,70.11
2018-10-16T08:30:59.672Z,67.75
2018-10-16T08:36:04.994Z,66.30
2018-10-16T08:41:09.825Z,63.85
2018-10-16T08:52:24.350Z,47.54
2018-10-16T08:54:53.475Z,44.62
2018-10-16T08:57:22.474Z,44.60
2018-10-16T09:02:27.723Z,42.95
2018-10-16T09:07:32.601Z,38.40
2018-10-16T09:10:01.678Z,37.07
2018-10-16T09:12:30.753Z,33.65
2018-10-16T09:15:00.773Z,39.19
2018-10-16T09:17:29.882Z,33.33
2018-10-16T09:19:58.924Z,32.59
2018-10-16T09:22:29.065Z,33.97
2018-10-16T09:24:58.132Z,35.87
2018-10-16T09:27:29.124Z,31.26
2018-10-16T09:29:58.185Z,32.21
2018-10-16T09:32:27.258Z,35.72
2018-10-16T09:34:56.332Z,35.31
2018-10-16T09:40:01.490Z,33.51
2018-10-16T09:42:30.595Z,34.92
2018-10-16T09:44:59.641Z,35.98
2018-10-16T09:47:28.744Z,32.77
2018-10-16T09:49:58.809Z,32.36
2018-10-16T09:55:03.713Z,29.52
2018-10-16T09:57:32.775Z,28.71
2018-10-16T10:00:01.831Z,28.15
2018-10-16T10:02:30.898Z,30.36
2018-10-16T10:05:00.049Z,30.15
2018-10-16T10:10:08.755Z,29.87
2018-10-16T10:15:18.773Z,28.67
2018-10-16T10:17:48.160Z,29.03
2018-10-16T10:20:17.211Z,26.53
2018-10-16T10:22:47.203Z,25.60
2018-10-16T10:25:17.277Z,26.29
2018-10-16T10:27:46.318Z,25.84
2018-10-16T10:30:15.356Z,23.25
2018-10-16T10:35:22.411Z,21.51
2018-10-16T10:40:27.413Z,20.68
2018-10-16T10:42:57.392Z,23.42
2018-10-16T10:45:26.437Z,25.30
2018-10-16T10:47:55.509Z,23.50
2018-10-16T10:50:24.774Z,25.72
2018-10-16T10:52:53.712Z,23.81
2018-10-16T10:55:22.729Z,22.60
2018-10-16T10:57:51.787Z,23.00
2018-10-16T11:00:20.898Z,23.74
2018-10-16T11:02:49.969Z,21.51
2018-10-16T11:05:19.019Z,22.30
2018-10-16T11:07:48.115Z,20.02
2018-10-16T11:12:52.982Z,21.27
2018-10-16T11:15:22.050Z,19.27
2018-10-16T11:17:51.110Z,19.46
2018-10-16T11:20:21.155Z,18.74
2018-10-16T11:22:50.208Z,20.94
2018-10-16T11:25:19.403Z,20.49
2018-10-16T11:27:48.453Z,22.20
2018-10-16T11:30:17.600Z,26.55
2018-10-16T11:32:46.623Z,23.41
2018-10-16T11:35:15.673Z,20.75
2018-10-16T11:37:44.748Z,18.47
2018-10-16T11:40:13.792Z,20.71
2018-10-16T11:42:42.895Z,18.52
2018-10-16T11:45:12.032Z,17.87
2018-10-16T11:47:42.899Z,19.73
2018-10-16T11:50:13.039Z,19.12
2018-10-16T11:52:41.986Z,19.73
2018-10-16T11:55:12.941Z,22.46
2018-10-16T11:57:41.994Z,21.75
2018-10-16T12:00:11.065Z,22.94
2018-10-16T12:02:40.214Z,19.78
2018-10-16T12:05:10.171Z,17.19
2018-10-16T12:07:39.235Z,16.44
2018-10-16T12:10:09.286Z,17.59
2018-10-16T12:12:38.674Z,18.56
2018-10-16T12:15:07.784Z,17.00
2018-10-16T12:17:36.839Z,17.26
2018-10-16T12:20:06.914Z,16.71
2018-10-16T12:22:36.833Z,18.38
2018-10-16T12:25:05.988Z,18.13
2018-10-16T12:27:34.980Z,18.00
2018-10-16T12:30:04.029Z,20.50
2018-10-16T12:32:33.255Z,22.67
2018-10-16T12:35:02.360Z,22.03
2018-10-16T12:37:31.516Z,18.95
2018-10-16T12:40:00.645Z,20.39
2018-10-16T12:42:29.635Z,17.97
2018-10-16T12:44:58.690Z,17.04
2018-10-16T12:47:27.804Z,16.83
2018-10-16T12:49:56.822Z,16.30
2018-10-16T12:52:25.880Z,17.71
2018-10-16T12:54:54.925Z,16.09
2018-10-16T12:57:24.056Z,15.77
2018-10-16T12:59:53.224Z,16.57
2018-10-16T13:02:22.227Z,16.01
2018-10-16T13:04:52.205Z,15.26
2018-10-16T13:07:21.933Z,14.91
2018-10-16T13:09:50.962Z,15.05
2018-10-16T13:12:20.045Z,15.03
2018-10-16T13:14:49.093Z,15.53
2018-10-16T13:17:18.148Z,15.19
2018-10-16T13:19:47.247Z,15.51
2018-10-16T13:22:16.280Z,15.00
2018-10-16T13:24:47.308Z,15.78
2018-10-16T13:27:16.382Z,15.46
2018-10-16T13:29:45.477Z,15.98
2018-10-16T13:34:51.341Z,15.21
2018-10-16T13:37:20.446Z,16.56
2018-10-16T13:39:49.473Z,17.71
2018-10-16T13:42:18.534Z,16.01
2018-10-16T13:44:47.678Z,15.99
2018-10-16T13:52:28.259Z,14.60
2018-10-16T13:55:00.451Z,15.07
2018-10-16T13:57:29.487Z,15.27
2018-10-16T13:59:58.543Z,15.73
2018-10-16T14:02:27.605Z,16.13
2018-10-16T14:04:56.911Z,17.58
2018-10-16T14:07:25.776Z,15.93
2018-10-16T14:09:54.798Z,16.29
2018-10-16T14:12:23.843Z,16.14
2018-10-16T14:14:52.927Z,16.43
2018-10-16T14:17:21.989Z,18.22
2018-10-16T14:19:51.040Z,19.34
2018-10-16T14:22:20.085Z,19.47
2018-10-16T14:24:49.130Z,20.60
2018-10-16T14:27:18.174Z,20.75
2018-10-16T14:32:23.155Z,20.02
2018-10-16T14:34:52.134Z,20.02
2018-10-16T14:39:56.964Z,18.60
2018-10-16T14:42:26.021Z,20.23
2018-10-16T14:47:30.942Z,23.58
2018-10-16T14:50:00.093Z,24.21
2018-10-16T14:55:04.780Z,23.83
2018-10-16T14:57:33.868Z,25.84
2018-10-16T15:00:02.905Z,28.93
2018-10-16T15:02:31.965Z,30.39
2018-10-16T15:05:01.023Z,26.58
2018-10-16T15:10:06.065Z,27.31
2018-10-16T15:15:15.558Z,27.23
2018-10-16T15:17:44.595Z,25.92
2018-10-16T15:20:13.711Z,26.38
2018-10-16T15:22:42.699Z,27.59
2018-10-16T15:27:47.521Z,28.73
2018-10-16T15:30:16.574Z,30.09
2018-10-16T15:32:46.659Z,30.73
2018-10-16T15:35:15.726Z,31.37
2018-10-16T15:37:44.822Z,32.81
2018-10-16T15:40:14.004Z,34.39
2018-10-16T15:42:42.957Z,35.39
2018-10-16T15:45:12.018Z,38.20
2018-10-16T15:50:18.021Z,39.16
2018-10-16T15:52:47.082Z,37.37
2018-10-16T15:55:16.120Z,38.63
2018-10-16T15:57:45.189Z,40.13
2018-10-16T16:00:15.254Z,44.32
2018-10-16T16:02:44.324Z,47.23
2018-10-16T16:05:14.315Z,47.64
2018-10-16T16:10:19.118Z,52.00
2018-10-16T16:12:48.193Z,59.36
2018-10-16T16:15:17.257Z,59.50
2018-10-16T16:17:46.348Z,60.41
2018-10-16T16:20:15.403Z,62.31
2018-10-16T16:25:20.269Z,56.99
2018-10-16T16:27:49.328Z,57.03
2018-10-16T16:30:18.393Z,57.88
2018-10-16T16:32:47.484Z,61.44
2018-10-16T16:35:16.548Z,64.13
2018-10-16T16:37:45.606Z,66.11
2018-10-16T16:40:14.664Z,66.05
2018-10-16T16:42:44.010Z,69.07
2018-10-16T16:45:15.062Z,67.73
2018-10-16T16:47:44.115Z,72.59
2018-10-16T16:50:13.202Z,61.55
2018-10-16T16:52:42.232Z,67.60
2018-10-16T16:55:12.303Z,66.49
2018-10-16T16:57:41.357Z,72.28
2018-10-16T17:00:10.408Z,70.82
2018-10-16T17:02:39.471Z,70.29
2018-10-16T17:05:08.509Z,67.58
2018-10-16T17:07:37.584Z,68.15
2018-10-16T17:10:06.716Z,72.79
2018-10-16T17:12:35.726Z,68.22
2018-10-16T17:17:40.624Z,66.77
2018-10-16T17:20:09.637Z,73.05
2018-10-16T17:22:38.683Z,65.10
2018-10-16T17:25:07.871Z,70.87
2018-10-16T17:27:36.797Z,72.38
2018-10-16T17:30:05.853Z,73.12
2018-10-16T17:32:34.968Z,78.75
2018-10-16T17:35:05.042Z,81.31
2018-10-16T17:37:34.111Z,78.07
2018-10-16T17:40:03.167Z,78.72
2018-10-16T17:42:32.263Z,78.30
2018-10-16T17:45:01.341Z,78.30
2018-10-16T17:47:30.394Z,75.06
2018-10-16T17:52:35.129Z,78.40
2018-10-16T17:55:04.190Z,75.24
2018-10-16T17:57:33.285Z,75.91
2018-10-16T18:00:02.347Z,80.67
2018-10-16T18:05:07.185Z,80.98
2018-10-16T18:07:36.237Z,81.71
2018-10-16T18:10:05.298Z,81.80
2018-10-16T18:12:34.361Z,78.81
2018-10-16T18:17:39.126Z,73.80
2018-10-16T18:20:09.194Z,80.10
2018-10-16T18:22:38.254Z,79.45
2018-10-16T18:27:44.032Z,78.41
2018-10-16T18:35:25.593Z,78.23
2018-10-16T18:37:54.647Z,84.53
2018-10-16T18:40:23.730Z,84.84
2018-10-16T18:42:52.787Z,86.18
2018-10-16T18:45:21.847Z,83.93
2018-10-16T18:47:50.901Z,87.09
2018-10-16T18:50:19.973Z,82.11
2018-10-16T18:52:49.016Z,85.90
2018-10-16T18:55:18.096Z,86.46
2018-10-16T18:57:47.141Z,85.76
2018-10-16T19:00:17.255Z,87.02
2018-10-16T19:02:46.324Z,87.01
2018-10-16T19:05:15.402Z,77.64
2018-10-16T19:07:44.462Z,79.77
2018-10-16T19:10:13.499Z,78.20
2018-10-16T19:12:42.609Z,86.17
2018-10-16T19:15:11.679Z,88.12
2018-10-16T19:17:40.705Z,90.27
2018-10-16T19:20:09.807Z,88.01
2018-10-16T19:22:38.801Z,86.54
2018-10-16T19:25:07.866Z,86.31
2018-10-16T19:27:37.024Z,83.77
2018-10-16T19:30:05.989Z,78.71
2018-10-16T19:32:35.037Z,86.09
2018-10-16T19:35:04.092Z,88.31
2018-10-16T19:37:33.171Z,90.16
2018-10-16T19:40:02.194Z,90.71
2018-10-16T19:42:31.233Z,87.89
2018-10-16T19:45:00.347Z,83.37
2018-10-16T19:47:29.330Z,85.90
2018-10-16T19:49:58.393Z,88.45
2018-10-16T19:52:27.429Z,82.79
2018-10-16T19:54:56.490Z,88.82
2018-10-16T19:57:25.537Z,88.80
2018-10-16T19:59:54.687Z,89.65
2018-10-16T20:02:23.692Z,91.71
2018-10-16T20:04:52.742Z,90.65
2018-10-16T20:09:57.646Z,87.70
2018-10-16T20:12:28.642Z,88.86
2018-10-16T20:14:57.733Z,86.66
2018-10-16T20:20:02.592Z,90.43
2018-10-16T20:25:07.897Z,91.48
2018-10-16T20:27:37.377Z,87.74
2018-10-16T20:30:06.978Z,87.37
2018-10-16T20:32:36.247Z,89.44
2018-10-16T20:35:05.694Z,90.10
2018-10-16T20:37:35.157Z,90.61
2018-10-16T20:42:40.326Z,88.20
2018-10-16T20:45:09.889Z,90.08
2018-10-16T20:47:39.296Z,88.58
2018-10-16T20:50:08.798Z,89.82
2018-10-16T20:52:38.254Z,89.18
2018-10-16T20:55:07.877Z,91.39
2018-10-16T21:00:13.240Z,91.15
2018-10-16T21:02:42.440Z,92.55
2018-10-16T21:05:12.041Z,93.01
2018-10-16T21:07:41.055Z,92.63
2018-10-16T21:10:10.141Z,89.29
2018-10-16T21:12:39.193Z,90.46
2018-10-16T21:15:08.237Z,88.42
2018-10-16T21:17:37.288Z,91.27
2018-10-16T21:20:06.337Z,93.48
2018-10-16T21:22:35.384Z,93.66
2018-10-16T21:25:05.511Z,92.11
2018-10-16T21:27:34.502Z,92.33
2018-10-16T21:30:03.597Z,92.57
2018-10-16T21:35:08.453Z,92.60
2018-10-16T21:37:37.460Z,93.60
2018-10-16T21:40:06.501Z,92.68
2018-10-16T21:45:11.391Z,92.33
2018-10-16T21:47:40.803Z,92.11
2018-10-16T21:50:10.725Z,93.47
2018-10-16T21:52:40.165Z,95.19
2018-10-16T21:55:09.405Z,95.50
2018-10-16T21:57:38.392Z,94.26
2018-10-16T22:00:07.481Z,94.58
2018-10-16T22:02:53.434Z,94.66
2018-10-16T22:05:23.432Z,95.60
2018-10-16T22:07:53.594Z,96.21
2018-10-16T22:10:22.620Z,96.38
2018-10-16T22:12:52.427Z,96.01
2018-10-16T22:15:21.718Z,95.48
2018-10-16T22:17:51.172Z,94.36
2018-10-16T22:20:21.715Z,93.50
2018-10-16T22:22:51.676Z,93.60
2018-10-16T22:25:21.039Z,93.89
2018-10-16T22:27:50.327Z,93.38
2018-10-16T22:30:19.402Z,92.14
2018-10-16T22:35:25.180Z,91.36
2018-10-16T22:37:54.306Z,91.90
2018-10-16T22:43:00.869Z,93.18
2018-10-16T22:48:05.175Z,94.67
2018-10-16T22:50:34.212Z,95.17
2018-10-16T22:53:03.334Z,95.64
2018-10-16T22:55:32.356Z,95.44
2018-10-16T22:58:01.393Z,91.85
2018-10-16T23:03:06.134Z,90.43
2018-10-16T23:05:35.257Z,93.59
2018-10-16T23:10:40.982Z,95.04
2018-10-16T23:13:10.204Z,95.16
2018-10-16T23:15:39.164Z,96.70
2018-10-16T23:18:08.210Z,98.43
2018-10-16T23:20:37.280Z,98.59
2018-10-16T23:23:06.399Z,97.21
2018-10-16T23:25:35.359Z,96.54
2018-10-16T23:28:05.399Z,97.53
2018-10-16T23:30:34.455Z,94.52
2018-10-16T23:33:03.504Z,92.06
2018-10-16T23:38:08.268Z,90.21
2018-10-16T23:40:37.315Z,89.39
2018-10-16T23:43:06.388Z,90.89
2018-10-16T23:48:11.137Z,91.63
2018-10-16T23:53:15.869Z,95.70
2018-10-16T23:55:44.921Z,96.77
2018-10-16T23:58:14.949Z,98.25
